Time;durP1;ratioP1;P1;durP2;ratioP2;P2;SDS_P1;SDS_P2;PMS_P1;PMS_P2;Temp;Humidity;BMP_temperature;BMP_pressure;BME280_temperature;BME280_humidity;BME280_pressure;Samples;Min_cycle;Max_cycle;Signal;HPM_P1;HPM_P2
2023/12/07 00:01:50;;;;;;;32.75;16.55;;;;;;;;;;5076493;28;20017;-67
2023/12/07 00:04:35;;;;;;;36.20;18.10;;;;;;;;;;5061432;28;20020;-67
2023/12/07 00:07:21;;;;;;;31.73;16.60;;;;;;;;;;5062218;28;20021;-67
2023/12/07 00:10:07;;;;;;;32.80;17.02;;;;;;;;;;5076179;28;20036;-67
2023/12/07 00:12:52;;;;;;;37.60;17.88;;;;;;;;;;5074637;28;20036;-67
2023/12/07 00:15:38;;;;;;;35.80;17.75;;;;;;;;;;5078694;28;20012;-68
2023/12/07 00:18:24;;;;;;;38.25;17.70;;;;;;;;;;5095809;28;20020;-68
2023/12/07 00:21:10;;;;;;;36.45;17.52;;;;;;;;;;5094761;28;20026;-67
2023/12/07 00:23:55;;;;;;;34.35;16.95;;;;;;;;;;5095865;28;20020;-67
2023/12/07 00:26:41;;;;;;;37.75;17.15;;;;;;;;;;5095699;28;20370;-67
2023/12/07 00:29:26;;;;;;;33.72;16.20;;;;;;;;;;5095520;28;20028;-67
2023/12/07 00:32:12;;;;;;;37.83;16.90;;;;;;;;;;5094148;28;20128;-67
2023/12/07 00:34:58;;;;;;;32.83;16.70;;;;;;;;;;5080756;28;20031;-67
2023/12/07 00:37:43;;;;;;;36.80;17.75;;;;;;;;;;5077615;28;20017;-68
2023/12/07 00:40:29;;;;;;;33.97;16.88;;;;;;;;;;5075908;28;20024;-68
2023/12/07 00:43:14;;;;;;;34.97;17.27;;;;;;;;;;5076367;28;20017;-67
2023/12/07 00:46:00;;;;;;;37.83;17.35;;;;;;;;;;5074401;28;20376;-69
2023/12/07 00:48:45;;;;;;;36.83;16.90;;;;;;;;;;5080625;28;20486;-70
2023/12/07 00:51:31;;;;;;;37.67;17.30;;;;;;;;;;5095923;28;20126;-68
2023/12/07 00:54:17;;;;;;;39.00;17.70;;;;;;;;;;5080773;28;20039;-68
2023/12/07 00:57:02;;;;;;;42.13;17.85;;;;;;;;;;5096185;28;20016;-69
2023/12/07 00:59:48;;;;;;;39.22;17.92;;;;;;;;;;5079755;28;20322;-66
2023/12/07 01:02:34;;;;;;;39.38;17.52;;;;;;;;;;5079628;28;20020;-68
2023/12/07 01:05:19;;;;;;;38.40;18.63;;;;;;;;;;5081013;28;20152;-68
2023/12/07 01:08:05;;;;;;;40.25;18.77;;;;;;;;;;5095635;28;20031;-68
2023/12/07 01:10:50;;;;;;;39.15;18.35;;;;;;;;;;5081592;28;20063;-69
2023/12/07 01:13:36;;;;;;;35.10;17.08;;;;;;;;;;5094577;28;20035;-69
2023/12/07 01:16:22;;;;;;;35.25;17.52;;;;;;;;;;5079561;28;20020;-70
2023/12/07 01:19:07;;;;;;;35.75;17.23;;;;;;;;;;5095143;28;20008;-70
2023/12/07 01:21:53;;;;;;;39.15;17.50;;;;;;;;;;5095429;28;20342;-69
2023/12/07 01:24:38;;;;;;;39.35;18.02;;;;;;;;;;5095058;28;20028;-69
2023/12/07 01:27:24;;;;;;;40.88;17.33;;;;;;;;;;5078813;28;20024;-69
2023/12/07 01:30:10;;;;;;;38.78;17.63;;;;;;;;;;5094931;28;20069;-69
2023/12/07 01:32:55;;;;;;;36.17;17.80;;;;;;;;;;5080808;28;20031;-69
2023/12/07 01:35:41;;;;;;;39.58;17.52;;;;;;;;;;5095386;28;20115;-69
2023/12/07 01:38:26;;;;;;;37.70;16.73;;;;;;;;;;5081502;28;20440;-69
2023/12/07 01:41:12;;;;;;;37.95;17.75;;;;;;;;;;5095627;28;20020;-69
2023/12/07 01:43:58;;;;;;;38.63;17.90;;;;;;;;;;5095169;28;20020;-69
2023/12/07 01:46:43;;;;;;;40.53;18.08;;;;;;;;;;5095604;28;20035;-69
2023/12/07 01:49:29;;;;;;;38.45;17.60;;;;;;;;;;5095202;28;20559;-69
2023/12/07 01:52:14;;;;;;;36.35;17.05;;;;;;;;;;5095390;28;20032;-69
2023/12/07 01:55:00;;;;;;;38.17;18.55;;;;;;;;;;5095608;28;20091;-69
2023/12/07 01:57:46;;;;;;;37.42;17.02;;;;;;;;;;5081396;28;20069;-68
2023/12/07 02:00:33;;;;;;;36.42;16.70;;;;;;;;;;5095231;28;20024;-69
2023/12/07 02:03:19;;;;;;;36.55;17.65;;;;;;;;;;5095922;28;20448;-70
2023/12/07 02:06:08;;;;;;;36.30;17.52;;;;;;;;;;5093662;28;20020;-70
2023/12/07 02:08:54;;;;;;;34.80;16.40;;;;;;;;;;5094561;28;20024;-70
2023/12/07 02:11:39;;;;;;;34.88;16.58;;;;;;;;;;5094029;28;20066;-69
2023/12/07 02:14:25;;;;;;;38.38;16.73;;;;;;;;;;5093852;28;20016;-69
2023/12/07 02:17:19;;;;;;;37.55;16.88;;;;;;;;;;5094681;28;20341;-68
2023/12/07 02:20:17;;;;;;;38.63;15.95;;;;;;;;;;5095155;28;20013;-68
2023/12/07 02:23:04;;;;;;;37.88;16.27;;;;;;;;;;5095603;28;20020;-68
2023/12/07 02:29:13;;;;;;;31.25;14.35;;;;;;;;;;5095675;28;20449;-68
2023/12/07 02:31:58;;;;;;;35.80;15.88;;;;;;;;;;5094878;28;20020;-68
2023/12/07 02:34:44;;;;;;;39.30;16.48;;;;;;;;;;5080375;28;20019;-69
2023/12/07 02:37:32;;;;;;;33.15;15.90;;;;;;;;;;5078759;28;20023;-69
2023/12/07 02:40:21;;;;;;;35.97;16.42;;;;;;;;;;5099612;28;20053;-70
2023/12/07 02:43:07;;;;;;;34.10;14.68;;;;;;;;;;5084099;28;20112;-69
2023/12/07 02:45:53;;;;;;;35.15;14.65;;;;;;;;;;5097865;28;20468;-70
2023/12/07 02:48:39;;;;;;;33.05;15.75;;;;;;;;;;5098261;28;20034;-69
2023/12/07 02:51:24;;;;;;;31.80;14.27;;;;;;;;;;5082532;28;20060;-68
2023/12/07 02:54:10;;;;;;;30.35;14.02;;;;;;;;;;5098386;28;20070;-68
2023/12/07 02:56:55;;;;;;;32.22;13.82;;;;;;;;;;5098686;28;20356;-68
2023/12/07 02:59:41;;;;;;;28.77;12.82;;;;;;;;;;5083248;28;20023;-70
2023/12/07 03:02:27;;;;;;;25.88;12.77;;;;;;;;;;5099217;28;20016;-68
2023/12/07 03:05:12;;;;;;;27.77;12.48;;;;;;;;;;5082976;28;20070;-68
2023/12/07 03:07:58;;;;;;;26.00;12.75;;;;;;;;;;5097088;28;20078;-68
2023/12/07 03:10:43;;;;;;;26.33;12.05;;;;;;;;;;5097660;28;20042;-69
2023/12/07 03:13:29;;;;;;;23.17;11.52;;;;;;;;;;5098340;28;20028;-68
2023/12/07 03:16:14;;;;;;;24.98;11.75;;;;;;;;;;5083761;28;20081;-68
2023/12/07 03:19:01;;;;;;;21.73;10.50;;;;;;;;;;5099105;28;20043;-68
2023/12/07 03:21:46;;;;;;;22.88;10.65;;;;;;;;;;5097398;28;20016;-69
2023/12/07 03:24:32;;;;;;;23.52;11.05;;;;;;;;;;5097594;28;20028;-70
2023/12/07 03:27:18;;;;;;;25.40;11.90;;;;;;;;;;5082806;28;20018;-68
2023/12/07 03:30:04;;;;;;;23.08;11.27;;;;;;;;;;5097599;28;20113;-69
2023/12/07 03:32:50;;;;;;;23.35;10.75;;;;;;;;;;5083280;28;20088;-69
2023/12/07 03:35:35;;;;;;;20.85;9.63;;;;;;;;;;5081926;28;20020;-68
2023/12/07 03:38:21;;;;;;;19.52;9.63;;;;;;;;;;5098590;28;20020;-68
2023/12/07 03:41:06;;;;;;;22.67;10.38;;;;;;;;;;5098193;28;20040;-69
2023/12/07 03:43:52;;;;;;;22.58;10.65;;;;;;;;;;5097824;28;20016;-69
2023/12/07 03:46:37;;;;;;;23.98;11.32;;;;;;;;;;5097250;28;20016;-68
2023/12/07 03:49:23;;;;;;;21.90;10.38;;;;;;;;;;5097463;28;20117;-68
2023/12/07 03:52:09;;;;;;;22.70;10.55;;;;;;;;;;5096929;28;20360;-68
2023/12/07 03:54:54;;;;;;;22.95;10.98;;;;;;;;;;5096480;28;20059;-68
2023/12/07 03:57:40;;;;;;;22.40;10.73;;;;;;;;;;5097157;28;20016;-68
2023/12/07 04:00:26;;;;;;;19.05;10.40;;;;;;;;;;5097786;28;20016;-68
2023/12/07 04:03:12;;;;;;;21.73;11.38;;;;;;;;;;5096636;28;20028;-69
2023/12/07 04:05:57;;;;;;;29.15;12.23;;;;;;;;;;5096667;28;20047;-69
2023/12/07 04:08:43;;;;;;;20.90;11.13;;;;;;;;;;5083445;28;20016;-68
2023/12/07 04:11:29;;;;;;;24.20;11.85;;;;;;;;;;5096895;28;20037;-67
2023/12/07 04:14:15;;;;;;;25.38;12.32;;;;;;;;;;5096854;28;20421;-68
2023/12/07 04:17:00;;;;;;;22.63;11.10;;;;;;;;;;5096259;28;20027;-68
2023/12/07 04:19:46;;;;;;;24.40;11.98;;;;;;;;;;5097665;28;20020;-68
2023/12/07 04:22:31;;;;;;;27.33;12.02;;;;;;;;;;5082183;28;20039;-68
2023/12/07 04:25:17;;;;;;;20.73;10.65;;;;;;;;;;5096595;28;20031;-68
2023/12/07 04:28:03;;;;;;;20.67;10.95;;;;;;;;;;5096652;28;20027;-68
2023/12/07 04:30:48;;;;;;;21.77;10.75;;;;;;;;;;5096128;28;20059;-68
2023/12/07 04:33:34;;;;;;;23.55;10.50;;;;;;;;;;5096776;28;20024;-68
2023/12/07 04:36:19;;;;;;;22.60;11.00;;;;;;;;;;5096519;28;20366;-67
2023/12/07 04:39:05;;;;;;;22.25;10.82;;;;;;;;;;5097051;28;20021;-68
2023/12/07 04:41:51;;;;;;;20.88;9.98;;;;;;;;;;5094799;28;20020;-68
2023/12/07 04:44:36;;;;;;;21.98;10.80;;;;;;;;;;5081715;28;20471;-68
2023/12/07 04:47:23;;;;;;;17.65;9.63;;;;;;;;;;5095231;28;20027;-69
2023/12/07 04:50:09;;;;;;;17.73;8.98;;;;;;;;;;5095538;28;20047;-69
2023/12/07 04:52:55;;;;;;;18.35;10.00;;;;;;;;;;5096109;28;20391;-70
2023/12/07 04:55:42;;;;;;;17.00;9.25;;;;;;;;;;5096194;28;20062;-69
2023/12/07 04:58:28;;;;;;;18.30;9.60;;;;;;;;;;5094790;28;20016;-70
2023/12/07 05:01:14;;;;;;;17.35;8.95;;;;;;;;;;5080992;28;20013;-69
2023/12/07 05:03:59;;;;;;;16.88;9.15;;;;;;;;;;5096572;28;20016;-70
2023/12/07 05:06:45;;;;;;;19.08;9.63;;;;;;;;;;5096585;28;20051;-70
2023/12/07 05:09:30;;;;;;;20.42;8.82;;;;;;;;;;5095895;28;20024;-69
2023/12/07 05:12:16;;;;;;;19.77;9.27;;;;;;;;;;5095915;28;20032;-70
2023/12/07 05:15:04;;;;;;;19.33;9.52;;;;;;;;;;5095815;28;20035;-70
2023/12/07 05:17:49;;;;;;;18.48;9.27;;;;;;;;;;5094503;28;20028;-70
2023/12/07 05:20:38;;;;;;;18.25;8.95;;;;;;;;;;5081238;28;20016;-70
2023/12/07 05:23:24;;;;;;;17.85;9.40;;;;;;;;;;5095261;28;20111;-70
2023/12/07 05:26:10;;;;;;;19.25;9.68;;;;;;;;;;5094925;28;20338;-69
2023/12/07 05:28:56;;;;;;;17.25;8.50;;;;;;;;;;5095735;28;20360;-68
2023/12/07 05:31:42;;;;;;;16.52;8.93;;;;;;;;;;5095689;28;20407;-69
2023/12/07 05:34:27;;;;;;;17.88;9.02;;;;;;;;;;5094942;28;20103;-69
2023/12/07 05:37:13;;;;;;;15.75;8.80;;;;;;;;;;5095516;28;20071;-69
2023/12/07 05:39:58;;;;;;;17.30;8.50;;;;;;;;;;5094845;28;20456;-70
2023/12/07 05:42:44;;;;;;;16.25;8.80;;;;;;;;;;5080691;28;20085;-71
2023/12/07 05:45:30;;;;;;;15.82;8.38;;;;;;;;;;5080761;28;20103;-70
2023/12/07 05:48:16;;;;;;;16.88;9.02;;;;;;;;;;5095831;28;20440;-69
2023/12/07 05:51:01;;;;;;;15.45;8.70;;;;;;;;;;5094323;28;20158;-70
2023/12/07 05:53:47;;;;;;;16.40;8.40;;;;;;;;;;5096335;28;20028;-71
2023/12/07 05:56:33;;;;;;;17.48;8.85;;;;;;;;;;5095075;28;20035;-71
2023/12/07 05:59:18;;;;;;;16.50;9.38;;;;;;;;;;5080574;28;20076;-69
2023/12/07 06:02:04;;;;;;;17.95;9.27;;;;;;;;;;5094891;28;20370;-69
2023/12/07 06:04:50;;;;;;;19.48;10.18;;;;;;;;;;5094372;28;20023;-70
2023/12/07 06:07:35;;;;;;;17.17;8.50;;;;;;;;;;5093230;28;20044;-70
2023/12/07 06:10:21;;;;;;;14.95;8.60;;;;;;;;;;5095455;28;20153;-70
2023/12/07 06:13:06;;;;;;;17.83;9.23;;;;;;;;;;5096359;28;20353;-70
2023/12/07 06:15:52;;;;;;;15.75;8.80;;;;;;;;;;5085828;28;20027;-70
2023/12/07 06:18:37;;;;;;;16.85;8.90;;;;;;;;;;5099609;28;20470;-71
2023/12/07 06:21:25;;;;;;;17.30;8.93;;;;;;;;;;5098933;28;20111;-70
2023/12/07 06:24:10;;;;;;;15.90;8.57;;;;;;;;;;5099251;28;20036;-70
2023/12/07 06:26:57;;;;;;;16.27;9.55;;;;;;;;;;5098769;28;20019;-70
2023/12/07 06:29:43;;;;;;;16.75;9.10;;;;;;;;;;5099704;28;20034;-70
2023/12/07 06:32:28;;;;;;;18.33;9.50;;;;;;;;;;5098190;28;20067;-70
2023/12/07 06:35:14;;;;;;;15.80;8.95;;;;;;;;;;5098330;28;20023;-69
2023/12/07 06:37:59;;;;;;;15.82;8.50;;;;;;;;;;5097821;28;20016;-71
2023/12/07 06:40:45;;;;;;;17.13;9.02;;;;;;;;;;5098347;28;20016;-70
2023/12/07 06:43:31;;;;;;;16.85;8.55;;;;;;;;;;5084158;28;20070;-70
2023/12/07 06:46:16;;;;;;;17.63;9.65;;;;;;;;;;5083601;28;20471;-71
2023/12/07 06:49:02;;;;;;;20.55;9.85;;;;;;;;;;5098807;28;20103;-70
2023/12/07 06:51:47;;;;;;;18.52;10.18;;;;;;;;;;5097613;28;20048;-71
2023/12/07 06:54:33;;;;;;;23.38;9.77;;;;;;;;;;5098798;28;20024;-70
2023/12/07 06:57:19;;;;;;;19.27;8.93;;;;;;;;;;5097438;28;20318;-70
2023/12/07 07:00:09;;;;;;;16.55;8.45;;;;;;;;;;5098527;28;20020;-70
2023/12/07 07:02:55;;;;;;;16.25;8.82;;;;;;;;;;5082908;28;20333;-70
2023/12/07 07:05:41;;;;;;;18.85;8.93;;;;;;;;;;5083592;28;20032;-71
2023/12/07 07:08:27;;;;;;;20.08;10.07;;;;;;;;;;5097786;28;20138;-70
2023/12/07 07:11:16;;;;;;;17.63;9.70;;;;;;;;;;5098415;28;20039;-71
2023/12/07 07:14:01;;;;;;;19.20;9.95;;;;;;;;;;5083865;28;20107;-71
2023/12/07 07:16:47;;;;;;;19.35;9.52;;;;;;;;;;5098719;28;20433;-71
2023/12/07 07:19:32;;;;;;;21.15;10.52;;;;;;;;;;5082375;28;20372;-70
2023/12/07 07:22:18;;;;;;;19.23;10.30;;;;;;;;;;5098203;28;20034;-70
2023/12/07 07:25:04;;;;;;;18.65;10.02;;;;;;;;;;5097255;28;20024;-69
2023/12/07 07:27:50;;;;;;;20.58;10.18;;;;;;;;;;5081913;28;20024;-71
2023/12/07 07:30:36;;;;;;;21.17;10.40;;;;;;;;;;5082876;28;20020;-70
2023/12/07 07:33:21;;;;;;;19.60;10.15;;;;;;;;;;5098956;28;20122;-71
2023/12/07 07:36:07;;;;;;;18.85;10.35;;;;;;;;;;5081306;28;20082;-71
2023/12/07 07:38:52;;;;;;;15.10;9.10;;;;;;;;;;5096923;28;20367;-71
2023/12/07 07:41:38;;;;;;;21.60;10.55;;;;;;;;;;5098161;28;20050;-73
2023/12/07 07:44:24;;;;;;;19.98;10.63;;;;;;;;;;5096946;28;20039;-71
2023/12/07 07:47:09;;;;;;;21.25;10.32;;;;;;;;;;5097635;28;20027;-71
2023/12/07 07:49:55;;;;;;;20.20;10.73;;;;;;;;;;5082243;28;20359;-71
2023/12/07 07:52:40;;;;;;;19.83;10.80;;;;;;;;;;5097038;28;20064;-71
2023/12/07 07:55:26;;;;;;;19.95;10.70;;;;;;;;;;5082016;28;20016;-71
2023/12/07 07:58:12;;;;;;;21.05;11.30;;;;;;;;;;5104577;28;20016;-71
2023/12/07 08:00:57;;;;;;;17.50;9.48;;;;;;;;;;5097973;28;20016;-70
2023/12/07 08:03:43;;;;;;;20.23;9.85;;;;;;;;;;5082580;28;20360;-72
2023/12/07 08:06:28;;;;;;;21.02;10.55;;;;;;;;;;5082312;28;20080;-70
2023/12/07 08:09:14;;;;;;;19.13;10.32;;;;;;;;;;5097150;28;20020;-71
2023/12/07 08:12:01;;;;;;;22.27;11.65;;;;;;;;;;5095467;28;20031;-71
2023/12/07 08:14:48;;;;;;;19.80;11.50;;;;;;;;;;5096062;28;20498;-71
2023/12/07 08:17:33;;;;;;;21.48;10.48;;;;;;;;;;5096394;28;20020;-71
2023/12/07 08:20:19;;;;;;;17.27;9.45;;;;;;;;;;5096525;28;20111;-70
2023/12/07 08:23:05;;;;;;;20.33;10.70;;;;;;;;;;5097114;28;20051;-71
2023/12/07 08:25:50;;;;;;;21.83;10.90;;;;;;;;;;5096719;28;20035;-70
2023/12/07 08:28:36;;;;;;;20.98;11.48;;;;;;;;;;5097260;28;20016;-69
2023/12/07 08:31:23;;;;;;;22.40;10.55;;;;;;;;;;5095388;28;20110;-70
2023/12/07 08:34:09;;;;;;;25.00;11.85;;;;;;;;;;5096810;28;20419;-69
2023/12/07 08:36:55;;;;;;;22.23;11.23;;;;;;;;;;5096116;28;20013;-70
2023/12/07 08:39:40;;;;;;;20.42;10.65;;;;;;;;;;5097084;28;20452;-72
2023/12/07 08:42:26;;;;;;;19.38;10.88;;;;;;;;;;5096475;28;20023;-72
2023/12/07 08:45:13;;;;;;;24.90;12.38;;;;;;;;;;5081353;28;20020;-71
2023/12/07 08:47:59;;;;;;;19.77;10.35;;;;;;;;;;5095580;28;20032;-70
2023/12/07 08:50:45;;;;;;;18.75;10.38;;;;;;;;;;5095950;28;20048;-72
2023/12/07 08:53:30;;;;;;;20.30;11.02;;;;;;;;;;5096259;28;20333;-71
2023/12/07 08:56:16;;;;;;;19.55;9.25;;;;;;;;;;5096152;28;20020;-71
2023/12/07 08:59:02;;;;;;;20.33;10.70;;;;;;;;;;5082074;28;20016;-70
2023/12/07 09:01:47;;;;;;;20.08;11.20;;;;;;;;;;5095745;28;20016;-70
2023/12/07 09:04:33;;;;;;;18.30;10.30;;;;;;;;;;5096402;28;20024;-70
2023/12/07 09:07:18;;;;;;;16.02;8.73;;;;;;;;;;5096782;28;20027;-72
2023/12/07 09:10:04;;;;;;;18.00;9.15;;;;;;;;;;5081578;28;20114;-72
2023/12/07 09:12:50;;;;;;;17.08;9.77;;;;;;;;;;5094110;28;20470;-69
2023/12/07 09:15:37;;;;;;;16.35;8.90;;;;;;;;;;5096729;28;20436;-69
2023/12/07 09:18:23;;;;;;;20.50;9.85;;;;;;;;;;5081635;28;20017;-69
2023/12/07 09:21:08;;;;;;;21.92;10.52;;;;;;;;;;5095973;28;20106;-69
2023/12/07 09:23:54;;;;;;;15.35;9.18;;;;;;;;;;5096284;28;20019;-69
2023/12/07 09:26:40;;;;;;;16.83;10.15;;;;;;;;;;5094869;28;20444;-68
2023/12/07 09:29:25;;;;;;;19.30;11.10;;;;;;;;;;5094392;28;20066;-68
2023/12/07 09:32:11;;;;;;;14.63;8.57;;;;;;;;;;5095454;28;20028;-68
2023/12/07 09:34:57;;;;;;;14.18;7.78;;;;;;;;;;5095593;28;20017;-69
2023/12/07 09:37:42;;;;;;;14.55;8.05;;;;;;;;;;5095993;28;20436;-68
2023/12/07 09:40:29;;;;;;;14.05;8.15;;;;;;;;;;5100657;28;20050;-69
2023/12/07 09:43:15;;;;;;;17.17;8.90;;;;;;;;;;5095350;28;20034;-68
2023/12/07 09:46:00;;;;;;;14.45;8.00;;;;;;;;;;5095136;28;20046;-69
2023/12/07 09:48:48;;;;;;;15.68;8.13;;;;;;;;;;5094703;28;20035;-69
2023/12/07 09:51:35;;;;;;;15.30;8.13;;;;;;;;;;5094137;28;20040;-69
2023/12/07 09:54:21;;;;;;;15.85;8.57;;;;;;;;;;5079183;28;20095;-69
2023/12/07 09:57:09;;;;;;;18.27;8.80;;;;;;;;;;5095008;28;20016;-68
2023/12/07 09:59:57;;;;;;;16.08;8.93;;;;;;;;;;5097712;28;20020;-67
2023/12/07 10:02:44;;;;;;;16.63;8.80;;;;;;;;;;5095444;28;20031;-67
2023/12/07 10:05:30;;;;;;;16.17;8.90;;;;;;;;;;5094947;28;20055;-68
2023/12/07 10:08:24;;;;;;;17.27;9.57;;;;;;;;;;5094595;28;20021;-68
2023/12/07 10:11:12;;;;;;;15.40;8.40;;;;;;;;;;5094498;28;20028;-68
2023/12/07 10:13:58;;;;;;;19.70;10.10;;;;;;;;;;5094641;28;20031;-69
2023/12/07 10:16:55;;;;;;;19.63;10.75;;;;;;;;;;5078541;28;20035;-69
2023/12/07 10:19:40;;;;;;;17.70;10.00;;;;;;;;;;5094718;28;20020;-68
2023/12/07 10:22:26;;;;;;;15.05;9.50;;;;;;;;;;5094923;28;20313;-68
2023/12/07 10:25:12;;;;;;;17.85;9.65;;;;;;;;;;5094307;28;20028;-68
2023/12/07 10:27:57;;;;;;;15.40;8.88;;;;;;;;;;5094478;28;20024;-68
2023/12/07 10:30:44;;;;;;;16.23;8.77;;;;;;;;;;5094585;28;20024;-68
2023/12/07 10:33:29;;;;;;;18.17;9.88;;;;;;;;;;5094682;28;20024;-68
2023/12/07 10:36:15;;;;;;;19.58;9.48;;;;;;;;;;5094222;28;20402;-68
2023/12/07 10:39:01;;;;;;;15.25;8.93;;;;;;;;;;5092957;28;20358;-68
2023/12/07 10:41:48;;;;;;;15.77;8.70;;;;;;;;;;5094306;28;20094;-69
2023/12/07 10:44:35;;;;;;;17.00;9.25;;;;;;;;;;5093565;28;20024;-68
2023/12/07 10:47:22;;;;;;;19.58;9.75;;;;;;;;;;5079156;28;20404;-69
2023/12/07 10:50:11;;;;;;;17.52;9.70;;;;;;;;;;5093886;28;20117;-69
2023/12/07 10:52:57;;;;;;;17.60;9.52;;;;;;;;;;5094393;28;20111;-68
2023/12/07 10:55:47;;;;;;;16.00;8.55;;;;;;;;;;5094364;28;20102;-68
2023/12/07 10:58:35;;;;;;;20.20;10.63;;;;;;;;;;5093032;28;20020;-69
2023/12/07 11:01:22;;;;;;;20.77;10.38;;;;;;;;;;5082479;28;20020;-69
2023/12/07 11:04:11;;;;;;;23.08;10.38;;;;;;;;;;5098655;28;20085;-68
2023/12/07 11:06:58;;;;;;;16.48;9.40;;;;;;;;;;5098061;28;20067;-69
2023/12/07 11:09:47;;;;;;;16.27;8.95;;;;;;;;;;5097390;28;20012;-68
2023/12/07 11:12:52;;;;;;;15.65;9.23;;;;;;;;;;5097781;28;20140;-69
2023/12/07 11:15:37;;;;;;;16.27;9.32;;;;;;;;;;5097703;28;20063;-68
2023/12/07 11:18:26;;;;;;;14.80;8.60;;;;;;;;;;5083079;28;20455;-68
2023/12/07 11:21:12;;;;;;;15.32;8.50;;;;;;;;;;5097660;28;20020;-68
2023/12/07 11:24:01;;;;;;;17.15;8.40;;;;;;;;;;5098411;28;20107;-68
2023/12/07 11:26:47;;;;;;;19.15;8.95;;;;;;;;;;5097529;28;20030;-69
2023/12/07 11:29:33;;;;;;;19.13;9.10;;;;;;;;;;5097200;28;20031;-69
2023/12/07 11:32:18;;;;;;;16.20;8.90;;;;;;;;;;5096890;28;20099;-69
2023/12/07 11:35:07;;;;;;;15.35;8.05;;;;;;;;;;5083213;28;20333;-69
2023/12/07 11:38:12;;;;;;;16.60;9.30;;;;;;;;;;5083197;28;20498;-69
2023/12/07 11:40:58;;;;;;;14.88;8.20;;;;;;;;;;5081801;28;20448;-68
2023/12/07 11:43:45;;;;;;;16.65;9.07;;;;;;;;;;5097275;28;20024;-69
2023/12/07 11:46:31;;;;;;;15.98;8.95;;;;;;;;;;5097694;28;20031;-68
2023/12/07 11:49:17;;;;;;;17.38;8.45;;;;;;;;;;5097307;28;20451;-69
2023/12/07 11:52:12;;;;;;;19.80;9.02;;;;;;;;;;5096822;28;20044;-68
2023/12/07 11:54:58;;;;;;;14.23;8.45;;;;;;;;;;5096434;28;20352;-69
2023/12/07 11:57:44;;;;;;;13.07;7.68;;;;;;;;;;5097390;28;20463;-68
2023/12/07 12:00:29;;;;;;;18.48;9.07;;;;;;;;;;5096306;28;20368;-69
2023/12/07 12:03:15;;;;;;;16.13;8.73;;;;;;;;;;5096856;28;20031;-69
2023/12/07 12:06:03;;;;;;;15.52;8.88;;;;;;;;;;5095591;28;20115;-69
2023/12/07 12:08:48;;;;;;;17.23;9.05;;;;;;;;;;5095771;28;20062;-68
2023/12/07 12:11:34;;;;;;;18.05;9.55;;;;;;;;;;5095973;28;20015;-69
2023/12/07 12:14:20;;;;;;;20.85;10.55;;;;;;;;;;5096445;28;20024;-69
2023/12/07 12:17:05;;;;;;;19.77;10.27;;;;;;;;;;5096661;28;20365;-69
2023/12/07 12:19:54;;;;;;;16.67;9.50;;;;;;;;;;5097270;28;20480;-69
2023/12/07 12:22:40;;;;;;;16.63;9.80;;;;;;;;;;5096908;28;20035;-70
2023/12/07 12:25:28;;;;;;;19.20;10.27;;;;;;;;;;5107836;28;20020;-68
2023/12/07 12:28:15;;;;;;;21.08;11.25;;;;;;;;;;5104446;28;20027;-69
2023/12/07 12:31:01;;;;;;;24.13;11.82;;;;;;;;;;5096288;28;20012;-69
2023/12/07 12:33:48;;;;;;;21.02;11.40;;;;;;;;;;5096827;28;20321;-70
2023/12/07 12:36:34;;;;;;;17.08;10.05;;;;;;;;;;5082076;28;20020;-69
2023/12/07 12:39:19;;;;;;;18.25;10.32;;;;;;;;;;5095764;28;20440;-69
2023/12/07 12:42:05;;;;;;;21.92;11.80;;;;;;;;;;5095752;28;20039;-69
2023/12/07 12:44:51;;;;;;;24.35;13.20;;;;;;;;;;5096959;28;20058;-69
2023/12/07 12:47:37;;;;;;;22.75;11.23;;;;;;;;;;5079980;28;20054;-69
2023/12/07 12:50:52;;;;;;;20.20;11.20;;;;;;;;;;5095966;28;20035;-71
2023/12/07 12:53:41;;;;;;;17.33;9.88;;;;;;;;;;5088593;28;20093;-71
2023/12/07 12:56:28;;;;;;;19.13;10.27;;;;;;;;;;5096199;28;20399;-70
2023/12/07 12:59:13;;;;;;;16.67;9.77;;;;;;;;;;5095959;28;20031;-73
2023/12/07 13:01:59;;;;;;;20.90;10.98;;;;;;;;;;5081413;28;20020;-70
2023/12/07 13:04:45;;;;;;;25.02;12.23;;;;;;;;;;5090943;28;20024;-71
2023/12/07 13:07:30;;;;;;;21.70;11.68;;;;;;;;;;5091665;28;20089;-75
2023/12/07 13:10:16;;;;;;;19.33;10.88;;;;;;;;;;5069042;28;20030;-72
2023/12/07 13:13:03;;;;;;;19.63;10.50;;;;;;;;;;5076110;28;20016;-72
2023/12/07 13:15:49;;;;;;;19.65;11.20;;;;;;;;;;5092677;28;20396;-73
2023/12/07 13:18:37;;;;;;;19.90;10.82;;;;;;;;;;5093871;28;20024;-73
2023/12/07 13:21:23;;;;;;;19.52;11.25;;;;;;;;;;5079305;28;20042;-73
2023/12/07 13:24:12;;;;;;;17.70;10.63;;;;;;;;;;5079457;28;20117;-72
2023/12/07 13:27:00;;;;;;;23.45;12.15;;;;;;;;;;5092232;28;20070;-72
2023/12/07 13:29:45;;;;;;;20.27;12.07;;;;;;;;;;5093149;28;20050;-73
2023/12/07 13:32:32;;;;;;;23.25;11.80;;;;;;;;;;5078801;28;20031;-72
2023/12/07 13:35:18;;;;;;;24.38;11.70;;;;;;;;;;5093226;28;20020;-72
2023/12/07 13:38:03;;;;;;;23.38;12.48;;;;;;;;;;5094322;28;20027;-73
2023/12/07 13:40:49;;;;;;;21.58;12.30;;;;;;;;;;5078827;28;20360;-73
2023/12/07 13:43:35;;;;;;;21.40;11.68;;;;;;;;;;5078899;28;20020;-72
2023/12/07 13:46:20;;;;;;;20.17;11.10;;;;;;;;;;5079197;28;20026;-73
2023/12/07 13:49:06;;;;;;;19.88;11.02;;;;;;;;;;5092910;28;20115;-72
2023/12/07 13:51:52;;;;;;;19.05;10.77;;;;;;;;;;5093882;28;20118;-72
2023/12/07 13:54:39;;;;;;;18.15;10.05;;;;;;;;;;5093981;28;20063;-72
2023/12/07 13:57:24;;;;;;;17.52;10.18;;;;;;;;;;5092762;28;20020;-72
2023/12/07 14:00:13;;;;;;;19.25;10.60;;;;;;;;;;5091451;28;20035;-73
2023/12/07 14:02:58;;;;;;;24.42;12.15;;;;;;;;;;5093882;28;20131;-72
2023/12/07 14:05:45;;;;;;;28.90;13.20;;;;;;;;;;5093070;28;20031;-72
2023/12/07 14:08:31;;;;;;;24.52;12.32;;;;;;;;;;5093599;28;20355;-72
2023/12/07 14:11:17;;;;;;;24.85;13.10;;;;;;;;;;5092991;28;20027;-72
2023/12/07 14:14:03;;;;;;;24.63;12.98;;;;;;;;;;5092476;28;20032;-72
2023/12/07 14:16:50;;;;;;;22.35;12.70;;;;;;;;;;5092520;28;20035;-71
2023/12/07 14:19:36;;;;;;;22.17;12.75;;;;;;;;;;5092849;28;20020;-71
2023/12/07 14:22:21;;;;;;;22.83;13.00;;;;;;;;;;5092783;28;20043;-70
2023/12/07 14:25:07;;;;;;;26.38;12.70;;;;;;;;;;5092559;28;20019;-70
2023/12/07 14:27:52;;;;;;;20.80;11.93;;;;;;;;;;5092730;28;20016;-71
2023/12/07 14:30:38;;;;;;;21.33;11.85;;;;;;;;;;5092539;28;20017;-70
2023/12/07 14:33:24;;;;;;;24.10;13.15;;;;;;;;;;5093389;28;20093;-71
2023/12/07 14:36:10;;;;;;;23.02;12.50;;;;;;;;;;5096512;28;20016;-72
2023/12/07 14:38:55;;;;;;;25.77;12.98;;;;;;;;;;5096814;28;20024;-70
2023/12/07 14:41:41;;;;;;;27.92;14.75;;;;;;;;;;5097211;28;20368;-72
2023/12/07 14:44:27;;;;;;;27.55;14.55;;;;;;;;;;5096167;28;20112;-71
2023/12/07 14:47:12;;;;;;;26.85;13.68;;;;;;;;;;5096808;28;20030;-71
2023/12/07 14:49:58;;;;;;;30.05;15.95;;;;;;;;;;5097580;28;20024;-73
2023/12/07 14:52:44;;;;;;;30.83;14.90;;;;;;;;;;5102913;28;20036;-73
2023/12/07 14:55:29;;;;;;;26.27;14.07;;;;;;;;;;5103432;28;20252;-73
2023/12/07 14:58:15;;;;;;;31.58;16.40;;;;;;;;;;5116089;28;20015;-73
2023/12/07 15:01:02;;;;;;;31.58;16.67;;;;;;;;;;5117032;28;20456;-71
2023/12/07 15:03:48;;;;;;;33.63;16.48;;;;;;;;;;5116860;28;20020;-71
2023/12/07 15:06:33;;;;;;;32.80;16.98;;;;;;;;;;5118448;28;20092;-74
2023/12/07 15:09:19;;;;;;;31.15;17.35;;;;;;;;;;5115833;28;20444;-71
2023/12/07 15:12:05;;;;;;;34.35;16.77;;;;;;;;;;5102195;28;20439;-70
2023/12/07 15:14:51;;;;;;;35.38;17.70;;;;;;;;;;5116187;28;20337;-78
2023/12/07 15:17:37;;;;;;;36.03;18.70;;;;;;;;;;5116570;28;20012;-77
2023/12/07 15:20:23;;;;;;;30.55;15.80;;;;;;;;;;5103741;28;20497;-70
2023/12/07 15:23:09;;;;;;;35.10;17.15;;;;;;;;;;5116639;28;20529;-72
2023/12/07 15:25:55;;;;;;;31.60;17.50;;;;;;;;;;5115722;28;20448;-69
2023/12/07 15:28:41;;;;;;;33.95;17.95;;;;;;;;;;5117030;28;20436;-70
2023/12/07 15:31:26;;;;;;;32.70;17.75;;;;;;;;;;5116732;28;20034;-68
2023/12/07 15:34:12;;;;;;;37.38;20.23;;;;;;;;;;5114637;28;20027;-70
2023/12/07 15:36:57;;;;;;;35.47;19.15;;;;;;;;;;5102710;28;20041;-71
2023/12/07 15:39:43;;;;;;;33.70;17.45;;;;;;;;;;5101451;28;20019;-70
2023/12/07 15:42:29;;;;;;;32.95;16.98;;;;;;;;;;5102763;28;20043;-70
2023/12/07 15:45:14;;;;;;;33.95;17.88;;;;;;;;;;5115021;28;20020;-71
2023/12/07 15:48:00;;;;;;;35.40;17.98;;;;;;;;;;5100924;28;20020;-72
2023/12/07 15:50:46;;;;;;;33.83;18.75;;;;;;;;;;5115611;28;20110;-71
2023/12/07 15:53:32;;;;;;;34.97;17.30;;;;;;;;;;5115540;28;20027;-72
2023/12/07 15:56:17;;;;;;;40.60;19.45;;;;;;;;;;5116635;28;20027;-71
2023/12/07 15:59:03;;;;;;;32.88;17.20;;;;;;;;;;5110415;28;20103;-71
2023/12/07 16:01:52;;;;;;;34.20;17.95;;;;;;;;;;5095475;28;20020;-70
2023/12/07 16:04:37;;;;;;;31.02;16.30;;;;;;;;;;5095623;28;20115;-69
2023/12/07 16:07:23;;;;;;;29.00;16.27;;;;;;;;;;5095332;28;20035;-72
2023/12/07 16:10:09;;;;;;;26.42;15.43;;;;;;;;;;5079920;28;20035;-69
2023/12/07 16:12:54;;;;;;;29.42;14.88;;;;;;;;;;5094721;28;20028;-68
2023/12/07 16:15:40;;;;;;;24.58;13.65;;;;;;;;;;5096038;28;20456;-73